Aviation Digital Data Service (ADDS)

Output produced by METARs form (1827 UTC 16 August 2018)
found at http://www.aviationweather.gov/adds/metars/
 
KCAE 161730Z 1618/1718 24004KT P6SM SCT030 
     FM170000 VRB03KT P6SM SCT250 
     FM171500 22004KT P6SM SCT150
       
KCAK 161720Z 1618/1718 20010KT P6SM VCSH OVC040 
     TEMPO 1618/1622 4SM -RA BR OVC020 
     FM170000 21010KT P6SM VCSH OVC020 
     FM170900 22010KT 4SM BR OVC015 
     TEMPO 1709/1713 3SM BR OVC009 
     FM171500 23011KT P6SM OVC020
       
KCAR 161724Z 1618/1718 34009G16KT P6SM BKN045 
     FM162100 33008KT P6SM SCT050 
     FM170100 30004KT P6SM FEW070 
     FM170500 27003KT P6SM SKC 
     FM171000 23003KT P6SM SCT250 
     FM171600 19003KT P6SM SCT120 BKN220
       
TAF AMD KCBM 161745Z 1617/1723 19009KT 9999 SCT040 BKN050 QNH2999INS 
     TEMPO 1619/1624 VRB10G20KT 4800 -TSRA BKN040CB 
     BECMG 1705/1706 17006KT 9999 FEW010 SCT035 QNH3003INS 
     BECMG 1717/1718 22009KT 8000 -SHRA BKN015 OVC080 QNH3005INS 
     BECMG 1721/1722 20006KT 9999 NSW FEW020 SCT075 QNH3005INS TX34/1621Z TN24/1712Z
       
KCDC 161726Z 1618/1718 VRB05KT P6SM SCT080 BKN140 
     FM161900 23009KT P6SM VCTS SCT090CB BKN110 
     FM170300 17006KT P6SM SCT120
       
KCDR 161720Z 1618/1718 31006KT P6SM SKC 
     FM162100 06008KT P6SM SKC 
     FM170300 15004KT P6SM SKC
       
KCDS 161726Z 1618/1718 19011KT P6SM SCT050 
     FM162300 15011KT P6SM VCTS SCT040CB 
     FM170300 12009KT P6SM BKN070
       
KCEC 161803Z 1618/1718 22006KT 3SM BR BKN003 OVC012 
     TEMPO 1619/1621 6SM BR SCT003 BKN010 OVC014 
     FM162100 20007KT P6SM SCT010 OVC014 
     FM170000 19005KT 6SM BR OVC010 
     FM170500 17005KT 3SM BR OVC007 
     FM171000 VRB03KT 1SM BR OVC003
       
TAF KCEF 161800Z 1618/1724 30010KT 9999 SCT050 QNH2998INS 
     BECMG 1620/1621 VRB06KT 9999 SCT030 BKN040 QNH3001INS 
     BECMG 1715/1716 19010G15KT 9999 SCT030 BKN040 QNH2994INS 
     TEMPO 1720/1724 19009KT 8000 -TSRA BKN030CB TX32/1621Z TN21/1709Z
       
KCGI 161720Z 1618/1718 22008KT P6SM FEW025 SCT050 
     TEMPO 1618/1619 BKN025 
     FM170000 19004KT P6SM SCT100 
     FM170600 20005KT P6SM VCTS BKN050CB 
     FM171300 23004KT P6SM SCT025 BKN070
       
KCHA 161744Z 1618/1718 20006KT P6SM SCT060 BKN150 
     FM170100 00000KT P6SM FEW050 BKN150 
     FM170900 00000KT 5SM BR BKN150 
     FM171300 20005KT P6SM VCSH BKN100
       
KCHO 161738Z 1618/1718 20005KT P6SM FEW060 SCT250 
     FM170800 VRB03KT 5SM BR FEW080 SCT250 
     FM171300 VRB03KT P6SM FEW080 SCT250 
     FM171600 20006KT P6SM SCT100 BKN250
       
KCHS 161823Z 1618/1718 25007KT P6SM SCT040 SCT060 
     TEMPO 1618/1620 VRB10KT 6SM -TSRA BKN035CB 
     FM170000 20007KT P6SM SCT200 
     FM171400 22006KT P6SM SCT040 
     FM171600 23008KT P6SM BKN040
       
KCID 161730Z 1618/1718 VRB03KT P6SM BKN020 
     FM162200 02006KT P6SM VCTS SCT020CB BKN040 
     FM170700 33005KT 2SM BR SCT020 BKN030 
     FM171100 VRB04KT 3/4SM BR SCT002 BKN025 
     FM171500 01007KT P6SM BKN035
       
KCKB 161739Z 1618/1718 23009KT P6SM SCT050 
     FM162100 22007KT P6SM VCTS BKN040CB 
     FM170000 22007KT P6SM VCSH OVC040 
     FM170800 20011G18KT 6SM SHRA OVC040
       
KCKV 161726Z 1618/1718 20013KT P6SM SCT050 BKN070 
     TEMPO 1620/1624 3SM -TSRA OVC035CB 
     FM170200 20008KT P6SM BKN070 BKN150
       
KCLE 161720Z 1618/1724 19014G21KT P6SM VCSH OVC040 
     TEMPO 1619/1623 3SM -RA BR OVC020 
     FM170000 20012KT P6SM VCSH OVC020 
     FM170900 21010KT 5SM BR OVC009 
     FM171500 22010KT P6SM OVC015
       
KCLL 161720Z 1618/1718 20009KT P6SM BKN040 
     FM170100 17009KT P6SM SCT250 
     FM171000 18004KT P6SM SCT015
       
KCLM 161724Z 1618/1718 32007KT P6SM SKC 
     FM170100 28013KT P6SM SKC 
     FM170900 29010KT P6SM BKN015 
     FM171200 28004KT 4SM BR OVC004
       
KCLT 161734Z 1618/1724 23006KT P6SM SCT050 
     FM162300 20004KT P6SM FEW060 SCT120 
     FM171400 23007KT P6SM FEW050 SCT150 
     FM171800 22010G18KT P6SM BKN050 
     PROB30 1720/1724 -TSRA OVC035CB
       
KCMA 161727Z 1618/1718 19003KT P6SM SKC 
     FM161900 24008KT P6SM SKC 
     FM170400 VRB03KT P6SM SKC 
     FM171200 VRB03KT P6SM BKN010 
     FM171600 23005KT P6SM FEW012
       
KCMH 161741Z 1618/1718 19012G20KT P6SM VCSH BKN025 
     TEMPO 1618/1621 3SM -SHRA OVC012 
     FM162200 19012KT P6SM VCTS BKN035CB 
     FM170100 21008KT P6SM VCSH BKN040 
     FM170700 21005KT P6SM BKN015 
     FM170900 21004KT P6SM OVC008 
     FM171500 22010KT P6SM BKN015
       
KCMI 161738Z 1618/1718 28005KT P6SM VCSH SCT025 BKN035 
     FM170400 VRB04KT P6SM VCTS SCT035CB BKN250 
     FM171200 VRB04KT P6SM BKN025 
     FM171600 28005KT P6SM BKN035
       
KCMX 161723Z 1618/1718 VRB04KT P6SM SCT120 
     TEMPO 1618/1620 SCT020 
     FM171600 34006KT P6SM FEW080
       
KCNM 161728Z 1618/1718 09007KT P6SM SKC 
     FM162200 16009KT P6SM FEW150
       
KCNU 161741Z 1618/1718 VRB04KT P6SM FEW045 
     FM162200 20006KT P6SM VCTS BKN060CB 
     FM171200 02006KT P6SM SCT100
       
KCNY 161744Z 1618/1718 25005KT P6SM FEW110 SCT250 
     FM162200 29006KT P6SM SCT120 BKN250 
     FM170500 13005KT P6SM BKN110 OVC200 
     FM171000 10005KT P6SM FEW200
       
KCOD 161720Z 1618/1718 VRB04KT P6SM SCT200 
     FM170300 22006KT P6SM SCT200 AMD LTD TO CLD VIS AND WIND
       
KCOE 161720Z 1618/1718 07007KT 4SM FU HZ SCT040 BKN120 
     FM162200 25006G10KT 5SM FU HZ SCT035 BKN120 
     FM170200 25006KT 5SM FU HZ SCT035 BKN120 
     FM170300 09004KT 6SM FU HZ SCT040 BKN120 
     PROB30 1712/1718 6SM -TSRA FU HZ BKN090CB BKN120
       
TAF KCOF 161800Z 1618/1724 12009KT 9999 SCT040 SCT200 QNH3012INS 
     TEMPO 1618/1624 13012G18KT 9999 VCTS BKN030CB BKN200 
     BECMG 1702/1703 17008KT 9999 SCT040 SCT200 QNH3014INS 
     BECMG 1708/1709 15006KT 9999 FEW040 FEW200 QNH3015INS 
     BECMG 1714/1715 13009KT 9999 FEW030 FEW200 QNH3012INS 
     BECMG 1718/1719 14012KT 9999 VCTS BKN030CB QNH3010INS TX33/1620Z TN26/1710Z
       
KCON 161724Z 1618/1718 31007KT P6SM FEW070 
     FM170900 03003KT P6SM SCT045 
     FM171600 12005KT P6SM BKN050
       
KCOS 161729Z 1618/1718 VRB05KT P6SM FEW120 SCT200 
     FM162100 13012KT P6SM VCTS SCT090CB BKN140 
     FM170300 34010KT P6SM SCT120 BKN150 
     FM170600 36004KT P6SM SCT150 BKN200
       
KCOU 161737Z 1618/1718 25007KT P6SM SCT030 
     FM170300 31007KT 5SM -SHRA VCTS OVC040CB 
     FM170700 24004KT P6SM VCTS BKN060CB 
     FM171100 30005KT P6SM BKN250
       
KCPS 161737Z 1618/1718 24004KT P6SM SCT030 BKN040 
     FM170400 28004KT P6SM VCTS BKN040CB 
     FM170700 23004KT 5SM -SHRA VCTS OVC040CB 
     FM171200 29005KT P6SM BKN250
       
KCRE 161720Z 1618/1718 21010KT P6SM SCT040 
     FM170200 23004KT P6SM FEW050 
     FM171400 21010KT P6SM SKC
       
KCRG 161720Z 1618/1718 14008KT P6SM VCTS SCT035CB BKN070 
     FM170000 VRB03KT P6SM SCT150 BKN250
       
KCRP 161725Z 1618/1718 15014G24KT P6SM FEW035 SCT250 
     FM170200 15010KT P6SM FEW020 
     TEMPO 1702/1705 16012KT P6SM 
     FM171500 16012G18KT P6SM SKC
       
KCRQ 161740Z 1618/1718 25008KT P6SM SCT100 
     FM170000 VRB04KT P6SM SCT015 
     FM170500 VRB04KT P6SM OVC013
       
KCRW 161739Z 1618/1718 28007KT P6SM VCSH BKN040 BKN150 
     TEMPO 1623/1702 4SM SHRA OVC030 
     FM170500 21005KT P6SM VCSH BKN060 
     FM171500 21007KT P6SM SHRA VCTS BKN050CB 
     FM171700 23008KT 5SM SHRA BKN035
       
KCSG 161720Z 1618/1718 20005KT P6SM VCSH SCT045 
     TEMPO 1620/1624 VRB15G25KT 4SM TSRA BKN025CB 
     FM170200 21003KT P6SM SCT035 BKN120 
     FM170800 20004KT P6SM SCT015 
     FM171600 21005KT P6SM VCSH BKN040
       
KCSM 161743Z 1618/1718 19010KT P6SM OVC100 
     FM170000 20010KT P6SM BKN250 
     TEMPO 1700/1703 3SM TSRA BKN080CB BKN250 
     FM171200 35005KT P6SM BKN250
       
KCSV 161726Z 1618/1718 21008KT P6SM SCT050 BKN250 
     FM170200 20005KT P6SM BKN080 BKN150
       
KCTB 161730Z 1618/1718 33009KT 3SM FU SCT080 BKN150 
     FM162000 VRB06KT 5SM FU BKN150
       
KCUB 161730Z 1618/1718 21004KT P6SM SCT030 
     FM170000 VRB03KT P6SM SCT250 
     FM171500 22004KT P6SM SCT150
       
KCVG 161741Z 1618/1724 19012G20KT P6SM VCSH OVC035 
     TEMPO 1618/1619 5SM -SHRA OVC012 
     FM162100 20012G20KT P6SM VCTS BKN035CB 
     FM170100 20010KT P6SM VCSH BKN040 
     FM170800 21006KT 5SM BR OVC012 
     FM171500 21008KT P6SM BKN025 
     FM171800 22010KT P6SM VCSH BKN040
       
TAF KCVS 161801Z 1618/1724 22008KT 9999 FEW080 SCT270 QNH3013INS 
     BECMG 1702/1703 VRB20G30KT 9999 VCTS SCT080CB BKN300 QNH3008INS 
     TEMPO 1704/1707 04008KT -SHRA VCTS SCT045 OVC080CB 
     BECMG 1708/1709 14005KT 9999 NSW FEW080 BKN300 QNH3018INS 
     BECMG 1719/1720 20008KT 9999 FEW080 BKN300 QNH3015INS TX34/1622Z TN18/1712Z
       
KCWA 161748Z 1618/1718 09003KT P6SM BKN012 BKN050 
     TEMPO 1619/1623 2SM TSRA SCT012 BKN035CB 
     FM162300 VRB03KT P6SM VCSH SCT035 BKN120 
     FM170400 00000KT P6SM SCT120 SCT250 
     TEMPO 1705/1709 4SM BR 
     FM170900 00000KT 1 1/2SM BR SCT002 
     TEMPO 1709/1713 1/4SM FG VV002 
     FM171300 VRB03KT 3SM BR OVC006 
     FM171500 02004KT P6SM SCT015 SCT070
       
KCXO 161720Z 1618/1718 20008KT P6SM SCT035 
     FM170100 17006KT P6SM SCT250 
     FM170900 00000KT 6SM BR FEW015 
     FM171500 22005KT P6SM BKN025
       
KCXP 161754Z 1618/1718 VRB03KT P6SM SCT090 
     FM162000 25011KT P6SM SCT090 
     FM170300 VRB03KT P6SM SKC
       
KCYS 161720Z 1618/1718 03007KT P6SM FEW250 
     FM170000 18005KT P6SM FEW250 
     FM170500 24006KT P6SM FEW250